»·PEaware :: SWA2304 KLAS-KONT

SWA2304 :: KLAS-KONT

FLIGHT INFORMATION

Flight Status: Arrived
Operator:
Southwest Airlines
More flights by this operator :: More flights under this callsign
Pilot: Kyle M. (9350)
Aircraft: BOEING 737-800
(B738)
More flights by this aircraft type
Origin: KLAS McCarran Intl
United States
Destination: KONT Ontario Intl
United States
More flights between these airports :: More routes between these airports
Route: BOACH8 WHIGG FEYLA JCKIE1
File this flight plan on PilotEdge
Remarks:
Altitude:
(Current/Filed)
26,000ft
Speed:
(Current/Filed)
450kts
Departed: 12-Jun-19 10:42 AM
Arrived: 12-Jun-19 11:20 AM
Distance/Time
Traveled:
171nm/0:37
Distance/Time
To Go:
Arrived

Flight Plot

Page will automatically refresh every two minutes.

Flight plan parsing failed; only flown route is shown


Map Options




Map Legend


Flown Route
Filed Route
Departure Airport
Arrival Airport
Navaid (VOR, NDB)
Fix

Horizontal Profiles

Position Reports

Time Latitude Longitude Heading Altitude Ground
Speed
12-Jun-19 10:24 36.081234 -115.146076 254 2189ft 0kts
12-Jun-19 10:25 36.081234 -115.146076 254 2189ft 0kts
12-Jun-19 10:26 36.081234 -115.146076 254 2189ft 0kts
12-Jun-19 10:27 36.081234 -115.146076 254 2189ft 0kts
12-Jun-19 10:28 36.081234 -115.146076 254 2189ft 0kts
12-Jun-19 10:29 36.081234 -115.146076 254 2189ft 0kts
12-Jun-19 10:30 36.081234 -115.146075 254 2189ft 0kts
12-Jun-19 10:31 36.081345 -115.145582 254 2189ft 1kts
12-Jun-19 10:32 36.081708 -115.145425 154 2189ft 0kts
12-Jun-19 10:33 36.081708 -115.145425 154 2189ft 0kts
12-Jun-19 10:34 36.080645 -115.144871 170 2189ft 10kts
12-Jun-19 10:35 36.078907 -115.144362 178 2189ft 4kts
12-Jun-19 10:36 36.077756 -115.146539 274 2189ft 12kts
12-Jun-19 10:37 36.078058 -115.152292 269 2189ft 18kts
12-Jun-19 10:38 36.078038 -115.158674 270 2189ft 17kts
12-Jun-19 10:39 36.076975 -115.163735 204 2189ft 14kts
12-Jun-19 10:40 36.074076 -115.166644 296 2189ft 13kts
12-Jun-19 10:41 36.093915 -115.156349 25 2461ft 167kts
12-Jun-19 10:42 36.134098 -115.171420 272 4110ft 233kts
12-Jun-19 10:43 36.116196 -115.255867 252 6895ft 262kts
12-Jun-19 10:45 36.058929 -115.313173 200 9544ft 294kts
12-Jun-19 10:46 35.981352 -115.349351 201 10000ft 297kts
12-Jun-19 10:47 35.895629 -115.377871 172 11867ft 342kts
12-Jun-19 10:48 35.803278 -115.343290 162 14868ft 354kts
12-Jun-19 10:49 35.707195 -115.315049 186 17671ft 366kts
12-Jun-19 10:50 35.619070 -115.373385 227 20233ft 373kts
12-Jun-19 10:51 35.548919 -115.468742 228 22808ft 382kts
12-Jun-19 10:52 35.476287 -115.566314 228 25034ft 394kts
12-Jun-19 10:53 35.400986 -115.667853 228 26034ft 417kts
12-Jun-19 10:54 35.320031 -115.776680 228 26005ft 445kts
12-Jun-19 10:55 35.240444 -115.883324 228 25717ft 423kts
12-Jun-19 10:56 35.158687 -115.991818 227 25548ft 417kts
12-Jun-19 10:57 35.078685 -116.097868 227 25346ft 439kts
12-Jun-19 10:58 35.002121 -116.199022 227 25127ft 371kts
12-Jun-19 10:59 34.924558 -116.286584 223 23270ft 380kts
12-Jun-19 11:00 34.848741 -116.373873 225 22079ft 380kts
12-Jun-19 11:01 34.778998 -116.465353 235 20964ft 371kts
12-Jun-19 11:02 34.720097 -116.565675 234 19347ft 352kts
12-Jun-19 11:03 34.664633 -116.658919 233 17692ft 364kts
12-Jun-19 11:04 34.605504 -116.758057 233 15963ft 340kts
12-Jun-19 11:04 34.567096 -116.841146 240 14644ft 351kts
12-Jun-19 11:05 34.514383 -116.934656 227 13063ft 326kts
12-Jun-19 11:07 34.442174 -117.029262 212 11431ft 323kts
12-Jun-19 11:07 34.376361 -117.070280 207 10583ft 330kts
12-Jun-19 11:08 34.297349 -117.119752 207 10089ft 315kts
12-Jun-19 11:10 34.211931 -117.172914 204 10060ft 288kts
12-Jun-19 11:10 34.150388 -117.201800 198 9072ft 283kts
12-Jun-19 11:11 34.078024 -117.229051 197 7882ft 267kts
12-Jun-19 11:12 34.009855 -117.256275 213 6271ft 251kts
12-Jun-19 11:13 33.996427 -117.326549 302 4730ft 228kts
12-Jun-19 11:14 34.034466 -117.381260 311 4324ft 205kts
12-Jun-19 11:15 34.066617 -117.432052 279 3395ft 166kts
12-Jun-19 11:16 34.056149 -117.485103 262 2534ft 160kts
12-Jun-19 11:17 34.055013 -117.537703 269 1764ft 154kts
12-Jun-19 11:18 34.054984 -117.588324 270 951ft 138kts
12-Jun-19 11:19 34.055308 -117.604458 293 949ft 22kts
12-Jun-19 11:20 34.057885 -117.607577 42 949ft 11kts
12-Jun-19 11:21 34.058024 -117.603161 90 949ft 14kts
12-Jun-19 11:22 34.059064 -117.599873 0 949ft 9kts
12-Jun-19 11:23 34.059946 -117.599646 18 949ft 0kts

Navigation Log

Ident Type
Flight plan parsing failed, navigation log unavailable